Time;durP1;ratioP1;P1;durP2;ratioP2;P2;SDS_P1;SDS_P2;PMS_P1;PMS_P2;Temp;Humidity;BMP_temperature;BMP_pressure;BME280_temperature;BME280_humidity;BME280_pressure;Samples;Min_cycle;Max_cycle;Signal;HPM_P1;HPM_P2
2022/10/13 00:00:40;;;;;;;18.30;13.70;;;14.20;99.90;;;;;;4973705;28;20403;-72
2022/10/13 00:03:06;;;;;;;16.57;12.87;;;14.10;99.90;;;;;;4972176;28;20770;-72
2022/10/13 00:05:32;;;;;;;16.90;13.10;;;14.10;99.90;;;;;;4961934;28;20470;-72
2022/10/13 00:07:58;;;;;;;16.67;13.30;;;14.10;99.90;;;;;;4973037;28;20457;-72
2022/10/13 00:10:25;;;;;;;25.13;14.50;;;14.10;99.90;;;;;;4973919;28;20403;-71
2022/10/13 00:12:51;;;;;;;14.33;12.77;;;14.10;99.90;;;;;;4972851;28;20432;-71
2022/10/13 00:15:17;;;;;;;17.53;13.30;;;14.00;99.90;;;;;;4973171;28;20459;-72
2022/10/13 00:17:43;;;;;;;18.17;14.27;;;14.00;99.90;;;;;;4973040;28;20905;-71
2022/10/13 00:20:10;;;;;;;17.90;15.00;;;14.10;99.90;;;;;;4972058;28;20518;-71
2022/10/13 00:22:35;;;;;;;14.80;12.70;;;13.90;99.90;;;;;;4973371;28;20556;-71
2022/10/13 00:25:02;;;;;;;20.67;15.57;;;13.90;99.90;;;;;;4973406;28;20408;-71
2022/10/13 00:27:28;;;;;;;19.00;14.20;;;13.90;99.90;;;;;;4971990;28;20182;-71
2022/10/13 00:29:53;;;;;;;21.47;17.23;;;13.90;99.90;;;;;;4973044;28;20526;-71
2022/10/13 00:32:19;;;;;;;20.63;17.60;;;13.80;99.90;;;;;;4999721;23;20230;-69
2022/10/13 00:34:44;;;;;;;20.10;16.90;;;13.70;99.90;;;;;;4972316;28;20173;-68
2022/10/13 00:37:10;;;;;;;18.37;15.43;;;13.60;99.90;;;;;;4973486;28;20171;-70
2022/10/13 00:39:36;;;;;;;22.37;18.13;;;13.90;99.90;;;;;;4972181;28;20173;-70
2022/10/13 00:42:03;;;;;;;22.43;17.17;;;13.80;99.90;;;;;;4973353;28;20195;-70
2022/10/13 00:44:56;;;;;;;23.70;18.17;;;14.00;99.90;;;;;;4973174;28;20808;-70
2022/10/13 00:47:23;;;;;;;19.80;14.60;;;14.10;99.90;;;;;;4971850;28;20419;-70
2022/10/13 00:49:49;;;;;;;22.30;18.07;;;14.00;99.90;;;;;;4973381;28;20410;-70
2022/10/13 00:52:16;;;;;;;19.53;16.50;;;14.00;99.90;;;;;;4973023;28;20450;-70
2022/10/13 00:54:43;;;;;;;22.13;17.23;;;14.00;99.90;;;;;;4973479;28;20407;-70
2022/10/13 00:57:09;;;;;;;21.87;15.87;;;14.10;99.90;;;;;;4973620;28;20409;-70
2022/10/13 00:59:37;;;;;;;25.33;19.77;;;14.10;99.90;;;;;;4972761;28;20435;-70
2022/10/13 01:02:03;;;;;;;19.00;15.30;;;14.10;99.90;;;;;;4972711;28;20422;-70
2022/10/13 01:04:36;;;;;;;26.30;15.77;;;14.20;99.90;;;;;;4972940;28;20489;-70
2022/10/13 01:07:02;;;;;;;26.33;19.27;;;14.10;99.90;;;;;;4973224;28;20384;-69
2022/10/13 01:09:34;;;;;;;22.20;17.80;;;14.20;99.90;;;;;;4973104;28;20407;-69
2022/10/13 01:12:07;;;;;;;17.53;14.70;;;14.20;99.90;;;;;;4973141;28;20462;-69
2022/10/13 01:14:38;;;;;;;24.30;18.33;;;14.20;99.90;;;;;;4972882;28;20407;-70
2022/10/13 01:17:22;;;;;;;24.00;17.57;;;14.10;99.90;;;;;;4972545;28;20420;-70
2022/10/13 01:20:05;;;;;;;20.03;16.43;;;14.00;99.90;;;;;;4973201;28;20383;-69
2022/10/13 01:22:44;;;;;;;36.80;18.50;;;14.00;99.90;;;;;;4971342;28;20432;-69
2022/10/13 01:25:36;;;;;;;20.97;16.57;;;13.90;99.90;;;;;;4968305;28;20400;-70
2022/10/13 01:28:25;;;;;;;25.50;19.20;;;13.80;99.90;;;;;;4965293;28;20432;-70
2022/10/13 01:31:26;;;;;;;22.17;17.30;;;13.70;99.90;;;;;;4972197;28;20438;-70
2022/10/13 01:34:01;;;;;;;27.90;18.07;;;13.80;99.90;;;;;;4970023;28;20426;-69
2022/10/13 01:36:26;;;;;;;27.60;16.93;;;13.70;99.90;;;;;;4972871;28;20460;-69
2022/10/13 01:39:21;;;;;;;28.27;20.47;;;13.70;99.90;;;;;;4972822;28;20776;-69
2022/10/13 01:41:51;;;;;;;27.50;20.60;;;13.70;99.90;;;;;;4972721;28;20188;-69
2022/10/13 01:44:25;;;;;;;25.30;20.13;;;13.70;99.90;;;;;;4973594;28;20438;-70
2022/10/13 01:46:53;;;;;;;27.67;18.63;;;13.70;99.90;;;;;;4974206;28;20443;-70
2022/10/13 01:49:23;;;;;;;23.07;17.90;;;13.80;99.90;;;;;;4972344;28;20408;-70
2022/10/13 01:51:50;;;;;;;27.17;19.10;;;13.70;99.90;;;;;;4973109;28;20481;-70
2022/10/13 01:54:16;;;;;;;26.40;20.57;;;13.40;99.90;;;;;;4971008;28;20999;-70
2022/10/13 01:56:50;;;;;;;34.10;23.57;;;13.40;99.90;;;;;;4973127;28;20582;-70
2022/10/13 01:59:15;;;;;;;27.60;22.30;;;13.40;99.90;;;;;;4971921;28;20529;-70
2022/10/13 02:01:56;;;;;;;29.23;20.17;;;13.50;99.90;;;;;;4972151;28;20424;-69
2022/10/13 02:04:24;;;;;;;27.17;19.97;;;13.50;99.90;;;;;;4971939;28;20251;-70
2022/10/13 02:07:04;;;;;;;26.10;20.03;;;13.50;99.90;;;;;;4970662;28;20473;-70
2022/10/13 02:10:03;;;;;;;27.47;19.20;;;13.80;99.90;;;;;;4972430;28;20457;-70
2022/10/13 02:12:35;;;;;;;28.00;19.90;;;13.90;99.90;;;;;;4971036;28;20444;-70
2022/10/13 02:15:02;;;;;;;33.37;23.57;;;13.90;99.90;;;;;;4971789;28;20430;-70
2022/10/13 02:17:29;;;;;;;27.53;20.60;;;13.90;99.90;;;;;;4971948;28;20418;-70
2022/10/13 02:19:56;;;;;;;24.80;18.03;;;13.90;99.90;;;;;;4972067;28;20765;-70
2022/10/13 02:22:26;;;;;;;23.97;19.00;;;14.00;99.90;;;;;;4972116;28;20435;-70
2022/10/13 02:24:52;;;;;;;24.37;20.30;;;14.00;99.90;;;;;;4971988;28;20422;-70
2022/10/13 02:27:17;;;;;;;27.80;21.00;;;14.10;99.90;;;;;;4970664;28;20420;-70
2022/10/13 02:29:54;;;;;;;21.00;17.87;;;14.10;99.90;;;;;;4971337;28;20701;-70
2022/10/13 02:32:21;;;;;;;29.47;20.50;;;14.10;99.90;;;;;;4971498;28;20308;-70
2022/10/13 02:34:46;;;;;;;23.80;18.37;;;14.10;99.90;;;;;;4971115;28;20485;-70
2022/10/13 02:37:12;;;;;;;19.77;17.13;;;14.20;99.90;;;;;;4970978;28;20921;-70
2022/10/13 02:39:38;;;;;;;18.83;15.43;;;14.20;99.90;;;;;;4970889;28;20172;-70
2022/10/13 02:42:04;;;;;;;26.73;19.03;;;14.30;99.90;;;;;;4970156;28;20857;-70
2022/10/13 02:44:30;;;;;;;20.70;15.80;;;14.30;99.90;;;;;;4970401;28;20214;-71
2022/10/13 02:46:55;;;;;;;21.33;17.23;;;14.40;99.90;;;;;;4969807;28;20483;-70
2022/10/13 02:49:21;;;;;;;23.00;18.20;;;14.50;99.90;;;;;;4971330;28;20211;-70
2022/10/13 02:51:46;;;;;;;20.47;17.20;;;14.50;99.90;;;;;;4971497;28;20188;-70
2022/10/13 02:54:12;;;;;;;22.73;16.40;;;14.40;99.90;;;;;;4971445;28;20251;-70
2022/10/13 02:56:37;;;;;;;24.00;16.60;;;14.40;99.90;;;;;;4969559;28;20217;-70
2022/10/13 02:59:03;;;;;;;23.23;17.63;;;14.40;99.90;;;;;;4962488;28;20255;-70
2022/10/13 03:01:29;;;;;;;21.13;16.10;;;14.40;99.90;;;;;;4969737;28;20195;-70
2022/10/13 03:03:55;;;;;;;26.23;19.93;;;14.50;99.90;;;;;;4971084;28;20411;-70
2022/10/13 03:06:21;;;;;;;25.80;16.93;;;14.50;99.90;;;;;;4971402;28;20175;-70
2022/10/13 03:08:46;;;;;;;19.07;15.13;;;14.50;99.90;;;;;;4971113;28;20180;-70
2022/10/13 03:11:12;;;;;;;27.03;19.47;;;14.50;99.90;;;;;;4971080;28;20175;-70
2022/10/13 03:13:37;;;;;;;26.53;17.00;;;14.50;99.90;;;;;;4970335;28;20210;-70
2022/10/13 03:16:03;;;;;;;24.60;17.40;;;14.50;99.90;;;;;;4970531;28;20195;-70
2022/10/13 03:18:29;;;;;;;24.67;16.47;;;14.50;99.90;;;;;;4971057;28;20167;-70
2022/10/13 03:21:00;;;;;;;23.97;16.13;;;14.50;99.90;;;;;;4970602;28;20167;-70
2022/10/13 03:23:26;;;;;;;32.67;20.80;;;14.60;99.90;;;;;;4969653;28;20939;-70
2022/10/13 03:25:52;;;;;;;22.37;15.53;;;14.50;99.90;;;;;;4970958;28;20430;-70
2022/10/13 03:28:17;;;;;;;21.90;18.10;;;14.60;99.90;;;;;;4969621;28;20424;-70
2022/10/13 03:30:43;;;;;;;17.87;15.97;;;14.70;99.90;;;;;;4969658;28;20532;-70
2022/10/13 03:33:09;;;;;;;23.30;17.20;;;14.30;99.90;;;;;;4969465;28;20236;-70
2022/10/13 03:35:35;;;;;;;19.30;15.63;;;14.40;99.90;;;;;;4970777;28;20194;-70
2022/10/13 03:38:01;;;;;;;17.50;15.43;;;14.40;99.90;;;;;;4970840;28;20172;-70
2022/10/13 03:40:27;;;;;;;24.60;18.10;;;14.60;99.90;;;;;;4970379;28;20777;-70
2022/10/13 03:42:52;;;;;;;21.70;18.07;;;14.60;99.90;;;;;;4970361;28;20185;-70
2022/10/13 03:45:18;;;;;;;21.10;15.97;;;14.70;99.90;;;;;;4970803;28;20422;-70
2022/10/13 03:47:44;;;;;;;22.40;17.03;;;14.70;99.90;;;;;;4970794;28;20267;-70
2022/10/13 03:50:09;;;;;;;27.57;18.63;;;14.60;99.90;;;;;;4971369;28;20180;-70
2022/10/13 03:52:35;;;;;;;21.33;15.30;;;14.40;99.90;;;;;;4970930;28;20196;-70
2022/10/13 03:55:01;;;;;;;25.37;16.77;;;14.50;99.90;;;;;;4973923;28;20185;-70
2022/10/13 03:57:26;;;;;;;24.27;16.97;;;14.50;99.90;;;;;;4973422;28;20178;-70
2022/10/13 03:59:54;;;;;;;25.13;17.37;;;14.50;99.90;;;;;;4973961;28;20183;-70
2022/10/13 04:02:20;;;;;;;24.03;18.63;;;14.60;99.90;;;;;;4973634;28;20238;-70
2022/10/13 04:04:46;;;;;;;24.20;17.70;;;14.60;99.90;;;;;;4973951;28;20810;-70
2022/10/13 04:07:11;;;;;;;22.53;17.93;;;14.40;99.90;;;;;;4973960;28;20168;-70
2022/10/13 04:09:37;;;;;;;29.83;18.50;;;14.40;99.90;;;;;;4973858;28;20533;-70
2022/10/13 04:12:02;;;;;;;24.80;19.70;;;14.50;99.90;;;;;;4973919;28;20247;-70
2022/10/13 04:14:28;;;;;;;23.70;18.60;;;14.60;99.90;;;;;;4972085;28;20217;-70
2022/10/13 04:16:54;;;;;;;23.80;19.20;;;14.60;99.90;;;;;;4973795;28;20283;-70
2022/10/13 04:19:19;;;;;;;28.63;19.93;;;14.60;99.90;;;;;;4973574;28;20696;-70
2022/10/13 04:21:45;;;;;;;22.03;17.77;;;14.70;99.90;;;;;;4973367;28;20192;-70
2022/10/13 04:24:15;;;;;;;21.70;19.40;;;14.60;99.90;;;;;;4974026;28;20263;-69
2022/10/13 04:26:41;;;;;;;21.43;18.03;;;14.60;99.90;;;;;;4972586;28;20183;-70
2022/10/13 04:29:08;;;;;;;23.47;15.17;;;14.60;99.90;;;;;;4971987;28;20424;-70
2022/10/13 04:31:34;;;;;;;17.67;15.50;;;14.60;99.90;;;;;;4973244;28;20562;-70
2022/10/13 04:33:59;;;;;;;17.27;13.80;;;14.60;99.90;;;;;;4973307;28;20418;-70
2022/10/13 04:36:26;;;;;;;23.83;16.37;;;14.70;99.90;;;;;;4973517;28;21199;-70
2022/10/13 04:38:53;;;;;;;23.87;17.23;;;14.80;99.90;;;;;;4973203;28;20178;-70
2022/10/13 04:41:19;;;;;;;19.23;15.13;;;14.90;99.90;;;;;;4973256;28;20801;-70
2022/10/13 04:43:49;;;;;;;17.27;14.40;;;14.90;99.90;;;;;;4972651;28;20409;-70
2022/10/13 04:46:18;;;;;;;15.90;13.20;;;15.00;99.90;;;;;;4973428;28;20453;-70
2022/10/13 04:48:45;;;;;;;19.20;14.70;;;15.00;99.90;;;;;;4973368;28;20412;-70
2022/10/13 04:51:13;;;;;;;22.03;15.80;;;14.90;99.90;;;;;;4971719;28;20830;-70
2022/10/13 04:53:39;;;;;;;20.00;15.83;;;14.70;99.90;;;;;;4973358;28;20424;-70
2022/10/13 04:56:08;;;;;;;20.00;13.67;;;14.70;99.90;;;;;;4971473;28;20452;-70
2022/10/13 04:58:35;;;;;;;21.23;16.43;;;14.80;99.90;;;;;;4972493;28;20483;-70
2022/10/13 05:01:02;;;;;;;18.33;14.07;;;14.60;99.90;;;;;;4973138;28;20407;-70
2022/10/13 05:03:28;;;;;;;17.37;14.53;;;14.40;99.90;;;;;;4972870;28;20812;-70
2022/10/13 05:05:54;;;;;;;16.57;14.13;;;14.20;99.90;;;;;;4971894;28;20415;-70
2022/10/13 05:08:20;;;;;;;19.20;14.70;;;14.20;99.90;;;;;;4971725;28;20558;-70
2022/10/13 05:10:53;;;;;;;22.60;16.47;;;14.30;99.90;;;;;;4972763;28;20604;-70
2022/10/13 05:13:19;;;;;;;23.30;17.90;;;14.40;99.90;;;;;;4970929;28;20417;-70
2022/10/13 05:15:44;;;;;;;20.93;15.50;;;14.30;99.90;;;;;;4972819;28;20458;-70
2022/10/13 05:18:10;;;;;;;19.80;15.70;;;14.20;99.90;;;;;;4972761;28;20209;-70
2022/10/13 05:20:35;;;;;;;19.47;15.17;;;14.20;99.90;;;;;;4973058;28;20210;-70
2022/10/13 05:23:01;;;;;;;20.37;15.60;;;14.20;99.90;;;;;;4972648;28;20230;-70
2022/10/13 05:25:26;;;;;;;17.83;15.93;;;14.10;99.90;;;;;;4972605;28;20191;-70
2022/10/13 05:27:52;;;;;;;19.43;15.07;;;14.10;99.90;;;;;;4971043;28;20182;-70
2022/10/13 05:30:17;;;;;;;20.77;15.43;;;14.10;99.90;;;;;;4972201;28;20206;-69
2022/10/13 05:32:43;;;;;;;19.90;15.40;;;14.10;99.90;;;;;;4970835;28;20237;-69
2022/10/13 05:35:09;;;;;;;17.60;13.30;;;14.00;99.90;;;;;;4972476;28;20188;-69
2022/10/13 05:37:34;;;;;;;22.93;15.00;;;14.10;99.90;;;;;;4971033;28;20172;-70
2022/10/13 05:40:00;;;;;;;20.27;15.00;;;14.00;99.90;;;;;;4972483;28;20200;-70
2022/10/13 05:42:28;;;;;;;20.20;15.13;;;14.10;99.90;;;;;;4971784;28;20251;-70
2022/10/13 05:44:54;;;;;;;21.30;16.10;;;14.10;99.90;;;;;;4971570;28;20207;-70
2022/10/13 05:47:21;;;;;;;22.00;16.60;;;14.10;99.90;;;;;;4971127;28;20462;-70
2022/10/13 05:49:47;;;;;;;24.83;17.20;;;13.90;99.90;;;;;;4968955;28;20172;-70
2022/10/13 05:52:13;;;;;;;21.63;16.40;;;13.90;99.90;;;;;;4963661;28;20442;-70
2022/10/13 05:54:41;;;;;;;23.37;17.23;;;13.90;99.90;;;;;;4972064;28;20177;-70
2022/10/13 05:57:20;;;;;;;20.20;17.00;;;14.00;99.90;;;;;;4970297;28;20212;-70
2022/10/13 05:59:53;;;;;;;22.90;16.50;;;14.20;99.90;;;;;;4971933;28;20391;-70
2022/10/13 06:02:22;;;;;;;20.73;13.37;;;14.10;99.90;;;;;;4971377;28;20423;-70
2022/10/13 06:04:51;;;;;;;27.03;16.40;;;14.20;99.90;;;;;;4972125;28;20411;-70
2022/10/13 06:07:17;;;;;;;19.70;15.23;;;14.20;99.90;;;;;;4970578;28;20503;-70
2022/10/13 06:09:43;;;;;;;18.73;15.97;;;14.30;99.90;;;;;;4972000;28;20491;-69
2022/10/13 06:12:09;;;;;;;24.17;16.73;;;14.30;99.90;;;;;;4971808;28;20531;-69
2022/10/13 06:14:34;;;;;;;21.50;14.10;;;14.30;99.90;;;;;;4971939;28;20212;-69
2022/10/13 06:17:00;;;;;;;23.10;16.63;;;14.50;99.90;;;;;;4971340;28;20504;-70
2022/10/13 06:19:26;;;;;;;18.53;14.90;;;14.50;99.90;;;;;;4971597;28;20171;-69
2022/10/13 06:21:51;;;;;;;17.87;15.50;;;14.40;99.90;;;;;;4971684;28;20290;-70
2022/10/13 06:24:17;;;;;;;19.43;15.33;;;14.60;99.90;;;;;;4972058;28;20180;-70
2022/10/13 06:26:42;;;;;;;21.80;16.50;;;14.80;99.90;;;;;;4972520;28;20297;-69
2022/10/13 06:29:08;;;;;;;20.30;16.13;;;14.60;99.90;;;;;;4970109;28;20656;-70
2022/10/13 06:34:01;;;;;;;18.17;14.13;;;14.70;99.90;;;;;;5072699;28;20212;-74
2022/10/13 06:36:27;;;;;;;18.63;14.80;;;14.70;99.90;;;;;;5072211;28;20485;-73
2022/10/13 06:38:53;;;;;;;24.87;18.23;;;14.90;99.90;;;;;;5073202;28;20484;-74
2022/10/13 06:41:19;;;;;;;23.73;16.30;;;14.70;99.90;;;;;;5073195;28;20604;-74
2022/10/13 06:43:44;;;;;;;20.47;16.13;;;15.00;99.90;;;;;;5071072;28;20289;-74
2022/10/13 06:46:11;;;;;;;21.30;15.67;;;14.90;99.90;;;;;;5073484;28;20626;-74
2022/10/13 06:48:37;;;;;;;21.33;13.90;;;14.70;99.90;;;;;;5072111;28;20741;-74
2022/10/13 06:51:05;;;;;;;18.37;14.47;;;14.50;99.90;;;;;;5073111;28;20407;-74
2022/10/13 06:53:31;;;;;;;19.83;16.07;;;14.50;99.90;;;;;;5072499;28;20430;-73
2022/10/13 06:56:02;;;;;;;22.63;16.57;;;14.60;99.90;;;;;;5072976;28;20456;-74
2022/10/13 06:58:28;;;;;;;18.00;15.40;;;14.60;99.90;;;;;;5072863;28;20407;-73
2022/10/13 07:00:54;;;;;;;22.20;15.50;;;14.60;99.90;;;;;;5072047;28;20907;-74
2022/10/13 07:03:20;;;;;;;21.87;15.57;;;14.60;99.90;;;;;;5072700;28;20422;-74
2022/10/13 07:05:46;;;;;;;23.00;15.00;;;14.70;99.90;;;;;;5072642;28;20400;-74
2022/10/13 07:08:12;;;;;;;17.00;13.47;;;14.60;99.90;;;;;;5073255;28;20446;-71
2022/10/13 07:10:38;;;;;;;16.80;13.73;;;14.90;99.90;;;;;;5072818;28;20174;-71
2022/10/13 07:13:04;;;;;;;18.57;12.83;;;15.10;99.90;;;;;;5072410;28;20418;-73
2022/10/13 07:15:30;;;;;;;18.10;13.70;;;15.20;99.90;;;;;;5072557;28;20463;-73
2022/10/13 07:17:55;;;;;;;17.73;14.00;;;15.30;99.90;;;;;;5073262;28;20227;-73
2022/10/13 07:20:22;;;;;;;20.07;14.93;;;15.50;99.90;;;;;;5071838;28;20175;-72
2022/10/13 07:22:48;;;;;;;19.53;13.43;;;15.30;99.90;;;;;;5072603;28;20217;-74
2022/10/13 07:25:14;;;;;;;14.10;12.60;;;15.40;99.90;;;;;;5073164;28;20848;-74
2022/10/13 07:27:40;;;;;;;17.20;13.03;;;15.50;99.90;;;;;;5073457;28;20166;-73
2022/10/13 07:30:07;;;;;;;16.63;12.87;;;15.50;99.90;;;;;;5075226;28;20509;-72
2022/10/13 07:32:34;;;;;;;17.47;14.03;;;15.60;99.90;;;;;;5075911;28;20476;-71
2022/10/13 07:35:00;;;;;;;14.13;12.37;;;15.70;99.90;;;;;;5074555;28;20798;-71
2022/10/13 07:37:25;;;;;;;16.13;12.17;;;15.80;99.90;;;;;;5072364;28;20422;-72
2022/10/13 07:39:51;;;;;;;21.23;13.93;;;16.00;99.90;;;;;;5071929;28;20171;-72
2022/10/13 07:42:17;;;;;;;22.03;14.10;;;16.00;99.90;;;;;;5066433;28;20556;-72
2022/10/13 07:44:43;;;;;;;22.67;15.40;;;15.90;99.90;;;;;;5075113;28;20490;-73
2022/10/13 07:47:09;;;;;;;21.37;14.67;;;16.00;99.90;;;;;;5076136;28;20175;-72
2022/10/13 07:49:35;;;;;;;20.87;14.10;;;15.90;99.90;;;;;;5075522;28;20315;-75
2022/10/13 07:52:00;;;;;;;18.83;14.27;;;15.70;99.90;;;;;;5075839;28;21009;-73
2022/10/13 07:54:26;;;;;;;19.43;14.37;;;15.80;99.90;;;;;;5075043;28;20178;-73
2022/10/13 07:56:53;;;;;;;14.80;12.60;;;15.90;99.90;;;;;;5076009;28;20199;-72
2022/10/13 07:59:19;;;;;;;20.30;13.83;;;15.90;99.90;;;;;;5076017;28;20411;-73
2022/10/13 08:01:45;;;;;;;15.13;13.03;;;16.00;99.90;;;;;;5073994;28;20403;-72
2022/10/13 08:04:10;;;;;;;19.33;12.57;;;16.10;99.90;;;;;;5073620;28;20436;-73
2022/10/13 08:06:36;;;;;;;16.10;12.63;;;16.20;99.90;;;;;;5075728;28;20176;-72
2022/10/13 08:09:03;;;;;;;16.23;12.00;;;16.00;99.90;;;;;;5063767;28;20200;-72
2022/10/13 08:11:29;;;;;;;15.60;13.53;;;16.00;99.90;;;;;;5056010;28;20526;-73
2022/10/13 08:13:59;;;;;;;19.20;11.83;;;16.20;99.90;;;;;;5055986;28;20405;-73
2022/10/13 08:16:25;;;;;;;18.50;12.23;;;16.30;99.90;;;;;;5073300;28;20602;-72
2022/10/13 08:18:51;;;;;;;17.70;11.77;;;16.40;99.90;;;;;;5075696;28;20404;-72
2022/10/13 08:21:18;;;;;;;13.50;11.53;;;16.50;99.90;;;;;;5073489;28;20431;-72
2022/10/13 08:23:44;;;;;;;12.00;9.93;;;16.70;99.90;;;;;;5075244;28;20416;-72
2022/10/13 08:26:22;;;;;;;12.90;9.90;;;16.80;99.90;;;;;;5075415;28;20410;-72
2022/10/13 08:28:48;;;;;;;18.27;11.90;;;16.90;99.90;;;;;;5074366;28;20459;-72
2022/10/13 08:31:14;;;;;;;16.20;10.60;;;16.80;99.90;;;;;;5075390;28;20406;-72
2022/10/13 08:33:40;;;;;;;17.90;11.23;;;16.50;99.90;;;;;;5075305;28;20602;-72
2022/10/13 08:36:06;;;;;;;13.70;10.90;;;16.40;99.90;;;;;;5074289;28;20197;-72
2022/10/13 08:38:32;;;;;;;14.90;10.10;;;16.60;99.90;;;;;;5075655;28;20498;-71
2022/10/13 08:40:58;;;;;;;13.57;10.70;;;16.70;99.90;;;;;;5074232;28;20488;-74
2022/10/13 08:43:24;;;;;;;12.87;10.83;;;16.80;99.90;;;;;;5065946;28;20697;-73
2022/10/13 08:45:57;;;;;;;12.30;10.50;;;17.00;99.90;;;;;;5073356;28;20543;-73
2022/10/13 08:48:41;;;;;;;14.20;10.53;;;16.90;99.90;;;;;;5075505;28;20422;-72
2022/10/13 08:51:07;;;;;;;12.03;8.73;;;17.20;99.90;;;;;;5075755;28;20376;-73
2022/10/13 08:53:41;;;;;;;17.60;8.43;;;17.50;99.90;;;;;;5074921;28;20430;-73
2022/10/13 08:56:25;;;;;;;12.30;9.27;;;17.60;99.90;;;;;;5075282;28;20182;-73
2022/10/13 08:58:53;;;;;;;11.13;9.00;;;17.50;99.90;;;;;;5070773;28;20431;-73
2022/10/13 09:01:22;;;;;;;11.70;9.37;;;17.40;99.90;;;;;;5056192;28;20488;-75
2022/10/13 09:04:24;;;;;;;10.20;7.80;;;17.60;99.90;;;;;;5070627;28;20844;-72
2022/10/13 09:07:05;;;;;;;13.60;9.00;;;17.80;99.90;;;;;;5075319;28;20380;-71
2022/10/13 09:09:30;;;;;;;11.97;8.83;;;17.80;99.90;;;;;;5075279;28;20391;-72
2022/10/13 09:11:57;;;;;;;13.47;8.17;;;17.80;99.90;;;;;;5074847;28;20791;-71
2022/10/13 09:14:32;;;;;;;12.83;8.57;;;17.90;99.90;;;;;;5074176;28;20177;-73
2022/10/13 09:17:25;;;;;;;11.53;7.80;;;18.10;99.90;;;;;;5075328;28;20462;-73
2022/10/13 09:19:57;;;;;;;13.80;8.77;;;17.90;99.90;;;;;;5074686;28;20527;-73
2022/10/13 09:22:26;;;;;;;13.10;8.37;;;17.80;99.90;;;;;;5074464;28;20420;-72
2022/10/13 09:25:09;;;;;;;13.10;9.63;;;17.80;99.90;;;;;;5074624;28;20407;-72
2022/10/13 09:27:53;;;;;;;13.97;9.77;;;17.60;99.90;;;;;;5075285;28;20871;-72
2022/10/13 09:30:34;;;;;;;17.50;9.10;;;17.50;99.90;;;;;;5073310;28;20506;-73
2022/10/13 09:33:12;;;;;;;11.00;8.47;;;17.50;99.90;;;;;;5074224;28;20985;-73
2022/10/13 09:35:46;;;;;;;9.10;7.43;;;17.30;99.90;;;;;;5074359;28;20439;-72
2022/10/13 09:38:20;;;;;;;11.80;7.20;;;17.40;99.90;;;;;;5073957;28;20497;-72
2022/10/13 09:41:18;;;;;;;10.37;7.50;;;17.60;99.90;;;;;;5073713;28;20422;-73
2022/10/13 09:43:46;;;;;;;16.20;8.30;;;17.80;99.90;;;;;;5046006;28;20432;-72
2022/10/13 09:46:29;;;;;;;11.63;8.37;;;18.00;99.90;;;;;;5059569;28;20423;-71
2022/10/13 09:49:03;;;;;;;8.00;7.20;;;17.80;99.90;;;;;;5073956;28;20393;-74
2022/10/13 09:51:39;;;;;;;9.40;6.90;;;17.90;99.90;;;;;;5073655;28;20400;-72
2022/10/13 09:54:22;;;;;;;8.33;7.10;;;18.10;99.90;;;;;;5073828;28;20388;-75
2022/10/13 09:56:51;;;;;;;13.97;8.90;;;18.00;99.90;;;;;;5074110;28;20428;-71
2022/10/13 09:59:40;;;;;;;12.23;7.93;;;17.90;99.90;;;;;;5073508;28;20450;-73
2022/10/13 10:02:22;;;;;;;12.07;7.77;;;18.10;99.90;;;;;;5073723;28;20432;-74
2022/10/13 10:04:50;;;;;;;13.83;6.77;;;18.20;99.90;;;;;;5074033;28;20377;-73
2022/10/13 10:07:20;;;;;;;12.50;8.17;;;18.40;99.90;;;;;;5073878;28;20410;-73
2022/10/13 10:10:00;;;;;;;10.63;7.20;;;18.60;99.90;;;;;;5073510;28;20389;-74
2022/10/13 10:12:29;;;;;;;9.37;6.87;;;18.70;99.90;;;;;;5073655;28;20431;-73
2022/10/13 10:14:55;;;;;;;12.80;8.13;;;18.90;99.90;;;;;;5073536;28;20408;-74
2022/10/13 10:17:26;;;;;;;10.10;7.10;;;18.70;99.90;;;;;;5073923;28;20533;-74
2022/10/13 10:20:00;;;;;;;8.00;6.00;;;18.80;99.90;;;;;;5073699;28;20170;-73
2022/10/13 10:22:44;;;;;;;8.67;6.50;;;18.70;99.90;;;;;;5074139;28;20424;-72
2022/10/13 10:25:38;;;;;;;11.37;7.47;;;18.70;99.90;;;;;;5073474;28;20814;-73
2022/10/13 10:28:28;;;;;;;10.33;6.67;;;18.40;99.90;;;;;;5073970;28;20749;-73
2022/10/13 10:31:31;;;;;;;11.67;6.50;;;18.10;99.90;;;;;;5071882;28;20482;-73
2022/10/13 10:34:26;;;;;;;7.10;6.40;;;18.30;99.90;;;;;;5073300;28;20860;-73
2022/10/13 10:37:11;;;;;;;10.00;6.67;;;18.60;99.90;;;;;;5073747;28;20447;-74
2022/10/13 10:39:58;;;;;;;9.77;6.30;;;18.50;99.90;;;;;;5073693;28;20389;-73
2022/10/13 10:43:02;;;;;;;8.93;7.10;;;18.70;99.90;;;;;;5073200;28;20412;-74
2022/10/13 10:45:35;;;;;;;8.97;7.27;;;18.70;99.90;;;;;;5072863;28;20404;-73
2022/10/13 10:48:13;;;;;;;12.20;6.30;;;18.60;99.90;;;;;;5073654;28;20377;-73
2022/10/13 10:50:39;;;;;;;9.23;6.23;;;18.80;99.90;;;;;;5073345;28;20475;-73
2022/10/13 10:53:36;;;;;;;7.03;6.33;;;18.60;99.90;;;;;;5073022;28;20982;-73
2022/10/13 10:56:08;;;;;;;8.47;6.37;;;18.70;99.90;;;;;;5072676;28;20210;-73
2022/10/13 10:59:04;;;;;;;9.60;6.57;;;18.80;99.90;;;;;;5073377;28;20913;-73
2022/10/13 11:02:01;;;;;;;8.50;7.67;;;18.90;99.90;;;;;;5052842;28;20405;-73
2022/10/13 11:04:37;;;;;;;8.70;7.23;;;18.80;99.90;;;;;;5061641;28;20521;-73
2022/10/13 11:07:08;;;;;;;12.80;7.10;;;18.40;99.90;;;;;;5077215;28;20392;-73
2022/10/13 11:09:40;;;;;;;10.20;6.47;;;18.50;99.90;;;;;;5076747;28;20388;-72
2022/10/13 11:12:17;;;;;;;10.83;7.17;;;18.90;99.90;;;;;;5077426;28;21167;-73
2022/10/13 11:14:45;;;;;;;9.90;6.33;;;19.20;99.90;;;;;;5076440;28;20411;-72
2022/10/13 11:17:37;;;;;;;10.63;6.90;;;19.30;99.90;;;;;;5076784;28;20448;-72
2022/10/13 11:20:21;;;;;;;13.80;8.70;;;19.40;99.90;;;;;;5076990;28;20381;-71
2022/10/13 11:23:06;;;;;;;9.17;7.10;;;19.50;99.90;;;;;;5076705;28;20485;-72
2022/10/13 11:25:38;;;;;;;12.63;7.20;;;19.70;99.90;;;;;;5076563;28;20407;-72
2022/10/13 11:28:22;;;;;;;7.43;6.23;;;19.50;99.90;;;;;;5076876;28;20443;-73
2022/10/13 11:31:14;;;;;;;7.97;6.70;;;19.50;99.90;;;;;;5074126;28;20420;-72
2022/10/13 11:33:39;;;;;;;8.50;7.40;;;19.50;99.90;;;;;;5074624;28;20949;-74
2022/10/13 11:36:31;;;;;;;9.63;6.57;;;19.30;99.90;;;;;;5071210;28;20440;-74
2022/10/13 11:39:21;;;;;;;7.47;6.00;;;19.30;99.90;;;;;;5056226;28;20195;-73
2022/10/13 11:42:10;;;;;;;9.93;6.27;;;19.30;99.90;;;;;;5074627;28;20428;-73
2022/10/13 11:44:41;;;;;;;8.00;6.40;;;19.50;99.90;;;;;;5075941;28;20381;-73
2022/10/13 11:47:37;;;;;;;10.33;6.80;;;19.50;99.90;;;;;;5076323;28;20803;-74
2022/10/13 11:50:16;;;;;;;7.53;5.70;;;19.80;99.90;;;;;;5075059;28;20384;-72
2022/10/13 11:52:58;;;;;;;6.50;5.77;;;20.00;99.90;;;;;;5074986;28;20415;-73
2022/10/13 11:55:36;;;;;;;7.40;5.67;;;19.90;99.90;;;;;;5076208;28;20431;-74
2022/10/13 11:58:14;;;;;;;9.70;5.70;;;20.00;99.90;;;;;;5075306;28;20415;-73
2022/10/13 12:01:13;;;;;;;6.93;5.67;;;20.20;99.90;;;;;;5076010;28;20392;-73
2022/10/13 12:03:42;;;;;;;9.63;6.27;;;20.40;99.90;;;;;;5066281;28;20448;-74
2022/10/13 12:06:33;;;;;;;6.60;5.90;;;20.60;99.90;;;;;;5065795;28;20771;-74
2022/10/13 12:09:19;;;;;;;8.07;5.80;;;20.90;99.90;;;;;;5055918;28;20386;-76
2022/10/13 12:11:44;;;;;;;7.00;5.70;;;20.90;99.90;;;;;;5053756;28;20495;-74
2022/10/13 12:14:39;;;;;;;9.03;5.60;;;20.70;99.90;;;;;;5055074;28;20927;-73
2022/10/13 12:17:21;;;;;;;10.53;5.57;;;20.60;99.90;;;;;;5055959;28;20217;-74
2022/10/13 12:19:47;;;;;;;10.70;5.60;;;20.60;99.90;;;;;;5055641;28;20388;-75
2022/10/13 12:22:13;;;;;;;7.93;5.30;;;20.80;99.90;;;;;;5055656;28;20409;-74
2022/10/13 12:24:39;;;;;;;6.37;5.60;;;20.80;99.90;;;;;;5055512;28;20300;-75
2022/10/13 12:27:20;;;;;;;7.83;5.10;;;20.80;99.90;;;;;;5058108;28;20443;-74
2022/10/13 12:29:46;;;;;;;6.93;4.90;;;20.60;99.90;;;;;;5073288;28;20438;-74
2022/10/13 12:32:27;;;;;;;5.77;5.17;;;20.50;99.90;;;;;;5075861;28;20512;-73
2022/10/13 12:34:53;;;;;;;6.10;5.10;;;21.40;99.90;;;;;;5075382;28;20434;-74
2022/10/13 12:37:29;;;;;;;5.47;4.87;;;22.10;99.90;;;;;;5074009;28;20451;-76
2022/10/13 12:39:57;;;;;;;5.07;4.57;;;22.50;99.90;;;;;;5075915;28;20151;-73
2022/10/13 12:42:30;;;;;;;6.63;4.50;;;22.40;99.90;;;;;;5075815;28;20424;-72
2022/10/13 12:44:58;;;;;;;5.97;4.87;;;22.60;99.90;;;;;;5075210;28;21314;-73
2022/10/13 12:47:46;;;;;;;5.43;4.60;;;22.80;99.90;;;;;;5074287;28;20485;-74
2022/10/13 12:50:24;;;;;;;5.53;4.30;;;23.10;99.90;;;;;;5075361;28;20385;-74
2022/10/13 12:52:52;;;;;;;7.27;4.90;;;23.70;99.90;;;;;;5075239;28;20420;-73